Weather at Kamienka/Hniezdne Airstrip

Public forecast

Using degrees Celsius for public forecast. Weather courtesy of forecast.io.

Closest aviation weather report (METAR) to Kamienka/Hniezdne Airstrip

Closest report is Poprad-Tatry Airport, 21.4 nm (39.6 km) SW.

2024/05/27 21:00 (retrieved 29 minutes ago)

LZTT 272100Z 29004KT CAVOK 11/07 Q1020

Closest aviation forecast (TAF) to Kamienka/Hniezdne Airstrip

Closest forecast is Poprad-Tatry Airport, 21.4 nm (39.6 km) SW.

2024/05/27 18:06 (retrieved 3 hours ago)

TAF LZTT 271715Z 2718/2818 VRB02KT 9999 FEW050 TEMPO 2718/2720 27008KT PROB40 2802/2805 2800 BCFG FEW003 BECMG 2806/2808 05007KT PROB30 TEMPO 2812/2818 TSRA SCT050CB